Time;durP1;ratioP1;P1;durP2;ratioP2;P2;SDS_P1;SDS_P2;PMS_P1;PMS_P2;Temp;Humidity;BMP_temperature;BMP_pressure;BME280_temperature;BME280_humidity;BME280_pressure;Samples;Min_cycle;Max_cycle;Signal;HPM_P1;HPM_P2
2024/01/24 00:02:24;;;;;;;32.92;4.25;;;;;;;;;;5049711;28;20116;-44
2024/01/24 00:04:51;;;;;;;46.60;5.07;;;;;;;;;;5048152;28;20029;-43
2024/01/24 00:07:18;;;;;;;29.60;4.25;;;;;;;;;;5050897;28;20033;-44
2024/01/24 00:09:45;;;;;;;28.73;4.72;;;;;;;;;;5051260;28;20111;-45
2024/01/24 00:12:13;;;;;;;28.75;4.05;;;;;;;;;;5045052;28;20029;-43
2024/01/24 00:14:40;;;;;;;33.28;3.70;;;;;;;;;;5039892;28;20813;-44
2024/01/24 00:17:07;;;;;;;22.35;3.17;;;;;;;;;;5028323;28;20056;-46
2024/01/24 00:19:34;;;;;;;25.35;3.42;;;;;;;;;;5033299;28;20026;-43
2024/01/24 00:22:01;;;;;;;29.83;3.42;;;;;;;;;;5040112;28;20041;-45
2024/01/24 00:24:28;;;;;;;29.52;3.33;;;;;;;;;;5051608;28;20069;-46
2024/01/24 00:26:55;;;;;;;29.77;4.00;;;;;;;;;;5049787;28;20115;-45
2024/01/24 00:29:22;;;;;;;16.05;2.75;;;;;;;;;;5034301;28;20029;-48
2024/01/24 00:31:50;;;;;;;23.92;3.25;;;;;;;;;;5045527;28;20482;-44
2024/01/24 00:34:17;;;;;;;24.73;3.42;;;;;;;;;;5044525;28;20032;-41
2024/01/24 00:36:44;;;;;;;24.85;3.90;;;;;;;;;;5051960;28;20065;-43
2024/01/24 00:39:13;;;;;;;25.40;3.67;;;;;;;;;;5049319;28;20040;-54
2024/01/24 00:41:41;;;;;;;24.08;3.85;;;;;;;;;;5048262;28;20029;-45
2024/01/24 00:44:09;;;;;;;22.20;3.65;;;;;;;;;;5040058;28;20029;-47
2024/01/24 00:46:36;;;;;;;19.70;3.85;;;;;;;;;;5052262;28;20413;-46
2024/01/24 00:49:03;;;;;;;19.08;3.28;;;;;;;;;;5049893;28;20083;-42
2024/01/24 00:51:30;;;;;;;24.25;3.47;;;;;;;;;;5042734;28;20117;-40
2024/01/24 00:53:57;;;;;;;19.15;4.47;;;;;;;;;;5046964;28;20032;-42
2024/01/24 00:56:24;;;;;;;35.58;8.07;;;;;;;;;;5051298;28;20048;-41
2024/01/24 00:58:51;;;;;;;31.27;8.65;;;;;;;;;;5048751;28;20075;-41
2024/01/24 01:01:18;;;;;;;40.97;12.43;;;;;;;;;;5050644;28;20029;-41
2024/01/24 01:03:45;;;;;;;44.38;16.33;;;;;;;;;;5049380;28;20033;-41
2024/01/24 01:06:12;;;;;;;62.63;20.77;;;;;;;;;;5049881;28;20040;-40
2024/01/24 01:08:39;;;;;;;57.17;21.90;;;;;;;;;;5050921;28;20087;-41
2024/01/24 01:11:07;;;;;;;56.10;23.73;;;;;;;;;;5032546;28;20035;-41
2024/01/24 01:13:34;;;;;;;57.92;22.75;;;;;;;;;;5050194;28;20036;-41
2024/01/24 01:16:01;;;;;;;49.60;20.77;;;;;;;;;;5029123;28;20051;-41
2024/01/24 01:18:29;;;;;;;51.22;19.85;;;;;;;;;;5049913;28;20474;-41
2024/01/24 01:20:56;;;;;;;45.72;19.55;;;;;;;;;;5049854;28;20037;-40
2024/01/24 01:23:23;;;;;;;48.05;18.13;;;;;;;;;;5030318;28;20032;-41
2024/01/24 01:25:50;;;;;;;40.65;16.73;;;;;;;;;;5050349;28;20391;-41
2024/01/24 01:28:17;;;;;;;46.42;16.08;;;;;;;;;;5044013;28;20203;-40
2024/01/24 01:30:44;;;;;;;46.17;13.95;;;;;;;;;;5054441;28;20149;-37
2024/01/24 01:33:11;;;;;;;46.10;13.60;;;;;;;;;;5041421;28;20525;-39
2024/01/24 01:35:38;;;;;;;36.42;11.80;;;;;;;;;;5044384;28;20035;-40
2024/01/24 01:38:05;;;;;;;39.10;12.18;;;;;;;;;;5049115;28;20037;-39
2024/01/24 01:40:32;;;;;;;34.50;11.52;;;;;;;;;;5032617;28;20029;-39
2024/01/24 01:42:59;;;;;;;32.95;11.32;;;;;;;;;;5050361;28;20083;-39
2024/01/24 01:45:26;;;;;;;31.23;11.40;;;;;;;;;;5048060;28;20037;-46
2024/01/24 01:47:54;;;;;;;35.05;9.45;;;;;;;;;;5046724;28;20049;-46
2024/01/24 01:50:21;;;;;;;36.63;10.10;;;;;;;;;;5049724;28;20078;-44
2024/01/24 01:52:48;;;;;;;34.15;8.65;;;;;;;;;;5040051;28;20857;-46
2024/01/24 01:55:15;;;;;;;29.42;8.15;;;;;;;;;;5050608;28;20517;-44
2024/01/24 01:57:44;;;;;;;34.38;8.15;;;;;;;;;;5050265;28;20040;-45
2024/01/24 02:00:18;;;;;;;35.97;8.13;;;;;;;;;;5046523;28;20052;-44
2024/01/24 02:02:46;;;;;;;23.88;7.20;;;;;;;;;;5049773;28;20067;-44
2024/01/24 02:05:14;;;;;;;25.08;7.10;;;;;;;;;;5048433;28;20018;-45
2024/01/24 02:07:44;;;;;;;17.50;6.38;;;;;;;;;;5044307;28;20056;-45
2024/01/24 02:10:14;;;;;;;31.90;6.82;;;;;;;;;;5045469;28;20036;-44
2024/01/24 02:12:42;;;;;;;22.38;6.80;;;;;;;;;;5032241;28;20025;-45
2024/01/24 02:15:09;;;;;;;17.45;5.38;;;;;;;;;;5052254;28;20028;-46
2024/01/24 02:17:37;;;;;;;20.05;5.15;;;;;;;;;;5054349;28;20040;-44
2024/01/24 02:20:06;;;;;;;16.70;4.60;;;;;;;;;;5054293;28;20033;-46
2024/01/24 02:22:33;;;;;;;20.25;5.15;;;;;;;;;;5054194;28;20029;-44
2024/01/24 02:25:00;;;;;;;19.75;4.53;;;;;;;;;;5048491;28;20164;-46
2024/01/24 02:27:28;;;;;;;32.92;5.85;;;;;;;;;;5045215;28;20493;-41
2024/01/24 02:31:38;;;;;;;53.47;6.93;;;;;;;;;;5127853;27;20120;-32
2024/01/24 02:34:05;;;;;;;63.63;6.47;;;;;;;;;;5111836;28;20039;-29
2024/01/24 02:36:32;;;;;;;35.05;6.43;;;;;;;;;;5103586;28;20039;-30
2024/01/24 02:38:59;;;;;;;41.65;6.00;;;;;;;;;;5099333;28;20567;-27
2024/01/24 02:41:26;;;;;;;35.70;5.88;;;;;;;;;;5100055;28;20355;-27
2024/01/24 02:43:53;;;;;;;25.50;4.68;;;;;;;;;;5101757;28;20028;-27
2024/01/24 02:46:20;;;;;;;22.88;4.00;;;;;;;;;;5109054;28;20116;-27
2024/01/24 02:48:47;;;;;;;22.88;4.15;;;;;;;;;;5104273;28;20070;-26
2024/01/24 02:51:23;;;;;;;18.52;4.20;;;;;;;;;;5098425;28;20474;-26
2024/01/24 02:53:50;;;;;;;19.10;3.25;;;;;;;;;;5088402;28;20036;-28
2024/01/24 02:56:17;;;;;;;21.00;3.67;;;;;;;;;;5088514;28;20481;-27
2024/01/24 02:58:44;;;;;;;19.85;3.60;;;;;;;;;;5098046;28;20019;-27
2024/01/24 03:01:12;;;;;;;18.48;3.63;;;;;;;;;;5105081;28;20118;-26
2024/01/24 03:03:43;;;;;;;12.27;3.35;;;;;;;;;;5108630;28;20103;-27
2024/01/24 03:06:10;;;;;;;25.55;3.55;;;;;;;;;;5108653;28;20039;-27
2024/01/24 03:08:56;;;;;;;16.02;3.08;;;;;;;;;;5108492;28;20103;-27
2024/01/24 03:11:23;;;;;;;15.90;3.13;;;;;;;;;;5105785;28;20109;-26
2024/01/24 03:13:50;;;;;;;12.68;3.03;;;;;;;;;;5106870;28;20020;-27
2024/01/24 03:16:18;;;;;;;14.43;3.00;;;;;;;;;;5108632;28;20028;-27
2024/01/24 03:18:45;;;;;;;16.80;3.15;;;;;;;;;;5108112;28;20024;-28
2024/01/24 03:21:15;;;;;;;12.98;2.60;;;;;;;;;;5108568;28;20505;-27
2024/01/24 03:23:42;;;;;;;12.23;2.33;;;;;;;;;;5104892;28;20393;-27
2024/01/24 03:26:09;;;;;;;10.23;2.60;;;;;;;;;;5107335;28;20027;-27
2024/01/24 03:28:36;;;;;;;13.73;2.85;;;;;;;;;;5108295;28;20024;-27
2024/01/24 03:31:04;;;;;;;17.98;3.28;;;;;;;;;;5107795;28;20493;-27
2024/01/24 03:33:31;;;;;;;13.07;2.70;;;;;;;;;;5108331;28;20047;-27
2024/01/24 03:35:58;;;;;;;15.73;2.92;;;;;;;;;;5104277;28;20039;-28
2024/01/24 03:38:25;;;;;;;12.13;2.78;;;;;;;;;;5107619;28;20020;-27
2024/01/24 03:40:52;;;;;;;10.88;2.35;;;;;;;;;;5088016;28;20042;-28
2024/01/24 03:43:19;;;;;;;10.60;2.85;;;;;;;;;;5094067;28;20035;-28
2024/01/24 03:45:46;;;;;;;11.10;2.83;;;;;;;;;;5094526;28;20024;-28
2024/01/24 03:48:13;;;;;;;12.68;2.95;;;;;;;;;;5089847;28;20028;-27
2024/01/24 03:50:40;;;;;;;13.23;2.75;;;;;;;;;;5094314;28;20029;-27
2024/01/24 03:53:07;;;;;;;11.18;2.50;;;;;;;;;;5094272;28;20034;-27
2024/01/24 03:55:34;;;;;;;11.80;2.28;;;;;;;;;;5094299;28;20033;-27
2024/01/24 03:58:01;;;;;;;14.80;2.45;;;;;;;;;;5094317;28;20103;-29
2024/01/24 04:00:28;;;;;;;13.85;2.30;;;;;;;;;;5089747;28;20062;-28
2024/01/24 04:02:55;;;;;;;14.00;2.63;;;;;;;;;;5094176;28;20016;-27
2024/01/24 04:05:22;;;;;;;16.13;2.40;;;;;;;;;;5094270;28;20036;-28
2024/01/24 04:07:49;;;;;;;12.75;2.08;;;;;;;;;;5094061;28;20079;-27
2024/01/24 04:10:16;;;;;;;14.13;2.70;;;;;;;;;;5093486;28;20032;-27
2024/01/24 04:12:43;;;;;;;12.18;2.70;;;;;;;;;;5090079;28;20020;-27
2024/01/24 04:15:10;;;;;;;9.90;2.28;;;;;;;;;;5075735;28;20028;-27
2024/01/24 04:17:37;;;;;;;11.50;2.20;;;;;;;;;;5093898;28;20058;-27
2024/01/24 04:20:04;;;;;;;8.93;2.35;;;;;;;;;;5093973;28;20028;-27
2024/01/24 04:22:31;;;;;;;8.93;2.00;;;;;;;;;;5092680;28;20024;-28
2024/01/24 04:24:58;;;;;;;13.27;2.42;;;;;;;;;;5090339;28;20032;-28
2024/01/24 04:27:25;;;;;;;17.88;2.63;;;;;;;;;;5093673;28;20024;-27
2024/01/24 04:29:52;;;;;;;15.68;2.10;;;;;;;;;;5093465;28;20482;-27
2024/01/24 04:32:19;;;;;;;13.27;2.42;;;;;;;;;;5093702;28;20524;-27
2024/01/24 04:34:46;;;;;;;12.57;2.33;;;;;;;;;;5091741;28;20443;-26
2024/01/24 04:37:13;;;;;;;11.20;2.35;;;;;;;;;;5090781;28;20024;-28
2024/01/24 04:39:41;;;;;;;12.40;2.78;;;;;;;;;;5093472;28;20035;-28
2024/01/24 04:42:08;;;;;;;10.52;2.03;;;;;;;;;;5093383;28;20055;-28
2024/01/24 04:44:34;;;;;;;12.55;2.33;;;;;;;;;;5093501;28;20024;-27
2024/01/24 04:47:02;;;;;;;7.75;2.10;;;;;;;;;;5090994;28;20746;-27
2024/01/24 04:49:29;;;;;;;12.35;2.38;;;;;;;;;;5090790;28;20032;-27
2024/01/24 04:51:56;;;;;;;10.68;2.22;;;;;;;;;;5092465;28;20030;-27
2024/01/24 04:54:23;;;;;;;10.80;2.67;;;;;;;;;;5092195;28;20032;-27
2024/01/24 04:56:50;;;;;;;11.18;2.20;;;;;;;;;;5093069;28;20031;-27
2024/01/24 04:59:17;;;;;;;10.02;2.20;;;;;;;;;;5089925;28;20556;-26
2024/01/24 05:01:44;;;;;;;11.52;2.40;;;;;;;;;;5091750;28;20032;-29
2024/01/24 05:04:11;;;;;;;9.88;2.00;;;;;;;;;;5092928;28;20028;-27
2024/01/24 05:06:38;;;;;;;10.20;2.42;;;;;;;;;;5093007;28;20096;-29
2024/01/24 05:09:05;;;;;;;18.52;2.97;;;;;;;;;;5092807;28;20107;-27
2024/01/24 05:11:32;;;;;;;10.57;2.45;;;;;;;;;;5088742;28;20119;-26
2024/01/24 05:14:00;;;;;;;12.90;2.25;;;;;;;;;;5092398;28;20153;-27
2024/01/24 05:16:29;;;;;;;12.38;2.40;;;;;;;;;;5092717;28;20111;-27
2024/01/24 05:18:57;;;;;;;13.70;2.38;;;;;;;;;;5092702;28;20043;-28
2024/01/24 05:21:24;;;;;;;6.90;1.83;;;;;;;;;;5092610;28;20036;-27
2024/01/24 05:23:54;;;;;;;14.65;2.60;;;;;;;;;;5088318;28;20032;-28
2024/01/24 05:26:21;;;;;;;9.30;2.15;;;;;;;;;;5092599;28;20039;-27
2024/01/24 05:28:48;;;;;;;9.00;2.72;;;;;;;;;;5092302;28;20036;-28
2024/01/24 05:31:15;;;;;;;11.07;2.38;;;;;;;;;;5092304;28;20043;-27
2024/01/24 05:33:42;;;;;;;9.02;2.08;;;;;;;;;;5092116;28;20037;-26
2024/01/24 05:36:09;;;;;;;12.27;2.38;;;;;;;;;;5088648;28;20028;-28
2024/01/24 05:38:36;;;;;;;13.95;2.60;;;;;;;;;;5092165;28;20031;-27
2024/01/24 05:41:03;;;;;;;11.23;2.30;;;;;;;;;;5092365;28;20394;-27
2024/01/24 05:43:31;;;;;;;10.57;2.67;;;;;;;;;;5092217;28;20038;-28
2024/01/24 05:45:58;;;;;;;16.23;2.40;;;;;;;;;;5089739;28;20032;-26
2024/01/24 05:48:25;;;;;;;12.90;2.58;;;;;;;;;;5090495;28;20039;-27
2024/01/24 05:50:52;;;;;;;11.07;2.45;;;;;;;;;;5092109;28;20485;-27
2024/01/24 05:53:19;;;;;;;14.70;2.47;;;;;;;;;;5092212;28;20024;-28
2024/01/24 05:55:46;;;;;;;10.35;2.22;;;;;;;;;;5092109;28;20032;-28
2024/01/24 05:58:13;;;;;;;6.53;1.80;;;;;;;;;;5088648;28;20036;-26
2024/01/24 06:00:40;;;;;;;11.15;2.65;;;;;;;;;;5090358;28;20089;-31
2024/01/24 06:03:07;;;;;;;8.93;2.25;;;;;;;;;;5091616;28;20020;-27
2024/01/24 06:05:34;;;;;;;10.00;2.60;;;;;;;;;;5073535;28;20028;-28
2024/01/24 06:08:02;;;;;;;11.75;2.85;;;;;;;;;;5091810;28;20028;-27
2024/01/24 06:10:29;;;;;;;16.20;2.58;;;;;;;;;;5069716;28;20134;-29
2024/01/24 06:12:56;;;;;;;8.02;2.05;;;;;;;;;;5091298;28;20409;-30
2024/01/24 06:15:23;;;;;;;12.00;2.67;;;;;;;;;;5091801;28;20083;-28
2024/01/24 06:17:51;;;;;;;16.92;2.78;;;;;;;;;;5091568;28;20047;-26
2024/01/24 06:20:18;;;;;;;13.52;2.70;;;;;;;;;;5091702;28;20584;-29
2024/01/24 06:22:46;;;;;;;9.98;2.25;;;;;;;;;;5087131;28;20027;-28
2024/01/24 06:25:14;;;;;;;9.35;2.50;;;;;;;;;;5091106;28;20382;-27
2024/01/24 06:27:42;;;;;;;12.45;2.40;;;;;;;;;;5091830;28;20059;-28
2024/01/24 06:30:10;;;;;;;12.43;2.70;;;;;;;;;;5091419;28;20040;-29
2024/01/24 06:32:37;;;;;;;9.88;2.35;;;;;;;;;;5091679;28;20059;-28
2024/01/24 06:35:04;;;;;;;8.38;2.15;;;;;;;;;;5088078;28;20028;-27
2024/01/24 06:37:31;;;;;;;11.05;2.60;;;;;;;;;;5091530;28;20107;-27
2024/01/24 06:39:58;;;;;;;12.18;2.40;;;;;;;;;;5091520;28;20435;-27
2024/01/24 06:42:25;;;;;;;12.57;2.47;;;;;;;;;;5091508;28;20027;-28
2024/01/24 06:44:52;;;;;;;11.23;2.20;;;;;;;;;;5090459;28;20165;-27
2024/01/24 06:47:21;;;;;;;10.18;2.35;;;;;;;;;;5087897;28;20036;-27
2024/01/24 06:49:48;;;;;;;12.40;2.58;;;;;;;;;;5091397;28;20462;-27
2024/01/24 06:52:15;;;;;;;9.55;2.20;;;;;;;;;;5091547;28;20024;-27
2024/01/24 06:54:42;;;;;;;12.90;2.72;;;;;;;;;;5076555;28;20040;-26
2024/01/24 06:57:09;;;;;;;12.75;2.40;;;;;;;;;;5069295;28;20020;-27
2024/01/24 06:59:36;;;;;;;8.70;2.67;;;;;;;;;;5068506;28;20036;-27
2024/01/24 07:02:05;;;;;;;8.02;2.38;;;;;;;;;;5069686;28;20024;-27
2024/01/24 07:04:32;;;;;;;8.55;2.42;;;;;;;;;;5071123;28;20409;-26
2024/01/24 07:07:00;;;;;;;14.80;2.92;;;;;;;;;;5070566;28;20543;-29
2024/01/24 07:09:27;;;;;;;24.98;3.63;;;;;;;;;;5068205;28;20040;-26
2024/01/24 07:11:54;;;;;;;21.27;3.67;;;;;;;;;;5069078;28;20028;-27
2024/01/24 07:14:21;;;;;;;19.75;3.63;;;;;;;;;;5076496;28;20521;-27
2024/01/24 07:16:48;;;;;;;17.35;2.88;;;;;;;;;;5088825;28;20028;-27
2024/01/24 07:19:16;;;;;;;15.85;3.33;;;;;;;;;;5095181;28;20020;-28
2024/01/24 07:21:43;;;;;;;20.98;3.20;;;;;;;;;;5091853;28;20496;-28
2024/01/24 07:24:10;;;;;;;22.67;4.25;;;;;;;;;;5093568;28;20040;-27
2024/01/24 07:26:37;;;;;;;20.77;3.65;;;;;;;;;;5094850;28;20103;-30
2024/01/24 07:29:04;;;;;;;21.88;3.35;;;;;;;;;;5094510;28;20684;-27
2024/01/24 07:31:31;;;;;;;28.40;4.00;;;;;;;;;;5094541;28;20039;-28
2024/01/24 07:33:58;;;;;;;24.15;3.33;;;;;;;;;;5091022;28;20035;-27
2024/01/24 07:36:25;;;;;;;28.55;3.97;;;;;;;;;;5094028;28;20377;-28
2024/01/24 07:38:53;;;;;;;23.70;3.60;;;;;;;;;;5093504;28;20032;-28
2024/01/24 07:41:20;;;;;;;27.23;3.65;;;;;;;;;;5094588;28;20093;-29
2024/01/24 07:43:47;;;;;;;17.92;3.95;;;;;;;;;;5094607;28;20082;-26
2024/01/24 07:46:14;;;;;;;24.15;3.75;;;;;;;;;;5090080;28;20024;-28
2024/01/24 07:48:41;;;;;;;19.98;3.40;;;;;;;;;;5094368;28;20474;-27
2024/01/24 07:51:08;;;;;;;23.27;3.70;;;;;;;;;;5094413;28;20085;-28
2024/01/24 07:53:36;;;;;;;28.33;4.63;;;;;;;;;;5094522;28;20119;-29
2024/01/24 07:56:03;;;;;;;18.92;3.83;;;;;;;;;;5094338;28;20032;-29
2024/01/24 07:58:30;;;;;;;21.00;3.72;;;;;;;;;;5089663;28;20035;-27
2024/01/24 08:00:57;;;;;;;22.98;3.85;;;;;;;;;;5094285;28;20020;-28
2024/01/24 08:03:24;;;;;;;18.70;3.45;;;;;;;;;;5076069;28;20457;-28
2024/01/24 08:05:51;;;;;;;18.17;3.53;;;;;;;;;;5094243;28;20111;-27
2024/01/24 08:08:18;;;;;;;13.70;2.80;;;;;;;;;;5093397;28;20028;-27
2024/01/24 08:10:45;;;;;;;15.68;3.17;;;;;;;;;;5090010;28;20040;-28
2024/01/24 08:13:12;;;;;;;13.30;3.05;;;;;;;;;;5094179;28;20036;-28
2024/01/24 08:15:39;;;;;;;16.23;2.95;;;;;;;;;;5094095;28;20028;-27
2024/01/24 08:18:07;;;;;;;15.30;2.83;;;;;;;;;;5093942;28;20020;-28
2024/01/24 08:20:35;;;;;;;16.27;3.03;;;;;;;;;;5092689;28;20039;-31
2024/01/24 08:23:02;;;;;;;12.65;2.80;;;;;;;;;;5090632;28;20129;-28
2024/01/24 08:25:29;;;;;;;10.02;2.50;;;;;;;;;;5093901;28;20020;-28
2024/01/24 08:27:57;;;;;;;12.57;2.83;;;;;;;;;;5093600;28;20035;-28
2024/01/24 08:30:24;;;;;;;11.50;2.78;;;;;;;;;;5093391;28;20052;-28
2024/01/24 08:32:51;;;;;;;14.00;3.00;;;;;;;;;;5092113;28;20032;-27
2024/01/24 08:35:18;;;;;;;10.65;2.97;;;;;;;;;;5091307;28;20024;-27
2024/01/24 08:37:45;;;;;;;12.00;3.25;;;;;;;;;;5093489;28;20024;-27
2024/01/24 08:40:13;;;;;;;11.20;2.45;;;;;;;;;;5093510;28;20035;-31
2024/01/24 08:42:41;;;;;;;9.73;2.60;;;;;;;;;;5093457;28;20032;-28
2024/01/24 08:45:09;;;;;;;10.02;2.25;;;;;;;;;;5090789;28;20109;-27
2024/01/24 08:47:39;;;;;;;12.57;2.50;;;;;;;;;;5091332;28;20027;-27
2024/01/24 08:50:06;;;;;;;12.23;2.80;;;;;;;;;;5093369;28;20032;-27
2024/01/24 08:52:35;;;;;;;13.13;2.38;;;;;;;;;;5093272;28;20504;-28
2024/01/24 08:55:02;;;;;;;11.38;2.60;;;;;;;;;;5093110;28;20101;-27
2024/01/24 08:57:29;;;;;;;12.52;2.53;;;;;;;;;;5089918;28;20043;-28
2024/01/24 08:59:56;;;;;;;12.60;2.83;;;;;;;;;;5092057;28;20027;-28
2024/01/24 09:02:24;;;;;;;8.73;2.50;;;;;;;;;;5093145;28;20016;-29
2024/01/24 09:04:52;;;;;;;11.48;2.75;;;;;;;;;;5092919;28;20449;-28
2024/01/24 09:07:20;;;;;;;10.70;2.42;;;;;;;;;;5092826;28;20400;-27
2024/01/24 09:09:51;;;;;;;8.88;2.33;;;;;;;;;;5088792;28;20127;-27
2024/01/24 09:12:18;;;;;;;12.25;2.40;;;;;;;;;;5093002;28;20028;-27
2024/01/24 09:14:45;;;;;;;8.23;2.10;;;;;;;;;;5092880;28;20115;-27
2024/01/24 09:17:13;;;;;;;8.32;2.47;;;;;;;;;;5092800;28;20025;-28
2024/01/24 09:19:44;;;;;;;8.63;2.42;;;;;;;;;;5092859;28;20057;-28
2024/01/24 09:22:11;;;;;;;8.27;2.42;;;;;;;;;;5088221;28;20591;-27
2024/01/24 09:24:38;;;;;;;8.13;2.35;;;;;;;;;;5074462;28;20443;-27
2024/01/24 09:27:05;;;;;;;7.35;2.30;;;;;;;;;;5092671;28;20051;-27
2024/01/24 09:29:33;;;;;;;9.07;2.40;;;;;;;;;;5092345;28;20052;-27
2024/01/24 09:32:00;;;;;;;10.00;2.30;;;;;;;;;;5092269;28;20085;-28
2024/01/24 09:34:27;;;;;;;9.10;2.50;;;;;;;;;;5088386;28;20393;-28
2024/01/24 09:36:54;;;;;;;10.07;2.42;;;;;;;;;;5092345;28;20028;-28
2024/01/24 09:39:25;;;;;;;7.10;2.25;;;;;;;;;;5092074;28;20039;-28
2024/01/24 09:41:52;;;;;;;8.43;2.17;;;;;;;;;;5092232;28;20042;-28
2024/01/24 09:44:19;;;;;;;8.00;2.30;;;;;;;;;;5091194;28;20421;-28
2024/01/24 09:46:48;;;;;;;8.35;2.40;;;;;;;;;;5088427;28;20032;-28
2024/01/24 09:49:17;;;;;;;7.40;2.25;;;;;;;;;;5092314;28;20028;-28
2024/01/24 09:51:45;;;;;;;7.38;2.25;;;;;;;;;;5092168;28;20031;-27
2024/01/24 09:54:13;;;;;;;5.82;2.10;;;;;;;;;;5092111;28;20393;-27
2024/01/24 09:56:40;;;;;;;9.65;2.15;;;;;;;;;;5090271;28;20035;-26
2024/01/24 09:59:08;;;;;;;7.35;2.38;;;;;;;;;;5089412;28;20031;-28
2024/01/24 10:01:36;;;;;;;8.45;2.20;;;;;;;;;;5092073;28;20103;-28
2024/01/24 10:04:03;;;;;;;6.97;2.45;;;;;;;;;;5092095;28;20020;-27
2024/01/24 10:06:30;;;;;;;7.07;2.22;;;;;;;;;;5091955;28;20024;-28
2024/01/24 10:08:58;;;;;;;8.48;2.65;;;;;;;;;;5089909;28;20036;-28
2024/01/24 10:11:25;;;;;;;7.05;2.10;;;;;;;;;;5089940;28;20410;-27
2024/01/24 10:14:01;;;;;;;8.15;2.50;;;;;;;;;;5091940;28;20028;-28
2024/01/24 10:16:28;;;;;;;7.03;2.15;;;;;;;;;;5091842;28;20490;-28
2024/01/24 10:18:55;;;;;;;6.25;2.25;;;;;;;;;;5091719;28;20389;-28
2024/01/24 10:21:23;;;;;;;6.35;2.20;;;;;;;;;;5070429;28;20035;-27
2024/01/24 10:23:50;;;;;;;8.65;2.47;;;;;;;;;;5090662;28;20066;-28
2024/01/24 10:26:17;;;;;;;8.23;1.88;;;;;;;;;;5091746;28;20035;-26
2024/01/24 10:28:44;;;;;;;9.25;2.20;;;;;;;;;;5091718;28;20027;-28
2024/01/24 10:31:11;;;;;;;7.47;2.17;;;;;;;;;;5091462;28;20044;-27
2024/01/24 10:33:39;;;;;;;8.98;2.10;;;;;;;;;;5087365;28;20058;-27
2024/01/24 10:36:06;;;;;;;10.43;2.40;;;;;;;;;;5091131;28;20379;-28
2024/01/24 10:38:35;;;;;;;7.90;2.08;;;;;;;;;;5091618;28;20074;-27
2024/01/24 10:41:03;;;;;;;7.80;2.17;;;;;;;;;;5091619;28;20385;-27
2024/01/24 10:43:30;;;;;;;7.65;2.67;;;;;;;;;;5091665;28;20530;-28
2024/01/24 10:45:58;;;;;;;7.13;2.20;;;;;;;;;;5086983;28;20032;-28
2024/01/24 10:48:25;;;;;;;7.82;2.40;;;;;;;;;;5091539;28;20089;-29
2024/01/24 10:50:52;;;;;;;8.07;2.25;;;;;;;;;;5091357;28;20030;-29
2024/01/24 10:53:20;;;;;;;8.15;2.00;;;;;;;;;;5095367;28;20111;-28
2024/01/24 10:55:50;;;;;;;7.18;2.03;;;;;;;;;;5095389;28;20426;-28
2024/01/24 10:58:18;;;;;;;5.07;2.17;;;;;;;;;;5091016;28;20066;-28
2024/01/24 11:00:45;;;;;;;10.00;2.15;;;;;;;;;;5095442;28;20043;-29
2024/01/24 11:03:12;;;;;;;9.48;2.38;;;;;;;;;;5095613;28;20036;-30
2024/01/24 11:05:51;;;;;;;9.10;2.10;;;;;;;;;;5095396;28;20055;-28
2024/01/24 11:08:27;;;;;;;10.45;2.22;;;;;;;;;;5093791;28;20044;-28
2024/01/24 11:10:56;;;;;;;11.80;2.50;;;;;;;;;;5092284;28;20396;-26
2024/01/24 11:13:24;;;;;;;11.77;2.45;;;;;;;;;;5095245;28;20032;-27
2024/01/24 11:15:57;;;;;;;6.55;2.67;;;;;;;;;;5095175;28;20035;-26
2024/01/24 11:18:24;;;;;;;5.70;2.10;;;;;;;;;;5095077;28;20036;-26
2024/01/24 11:20:54;;;;;;;7.53;2.30;;;;;;;;;;5092369;28;20036;-27
2024/01/24 11:23:35;;;;;;;6.47;2.00;;;;;;;;;;5075375;28;20036;-26
2024/01/24 11:26:02;;;;;;;9.35;2.28;;;;;;;;;;5094852;28;20381;-27
2024/01/24 11:28:29;;;;;;;6.43;1.95;;;;;;;;;;5094869;28;20031;-26
2024/01/24 11:30:56;;;;;;;9.40;2.08;;;;;;;;;;5094519;28;20052;-27
2024/01/24 11:33:24;;;;;;;7.47;2.30;;;;;;;;;;5090993;28;20028;-29
2024/01/24 11:35:53;;;;;;;9.05;2.38;;;;;;;;;;5094043;28;20028;-27
2024/01/24 11:38:24;;;;;;;6.90;2.30;;;;;;;;;;5094553;28;20367;-26
2024/01/24 11:40:51;;;;;;;9.30;2.45;;;;;;;;;;5094614;28;20039;-26
2024/01/24 11:43:28;;;;;;;7.85;2.17;;;;;;;;;;5094656;28;20031;-26
2024/01/24 11:45:56;;;;;;;10.07;1.95;;;;;;;;;;5090051;28;20428;-27
2024/01/24 11:48:23;;;;;;;9.02;2.58;;;;;;;;;;5094481;28;20102;-26
2024/01/24 11:51:00;;;;;;;6.32;2.08;;;;;;;;;;5094306;28;20059;-28
2024/01/24 11:53:28;;;;;;;8.40;2.10;;;;;;;;;;5094537;28;20031;-26
2024/01/24 11:55:59;;;;;;;10.55;2.10;;;;;;;;;;5093341;28;20077;-26
2024/01/24 11:58:28;;;;;;;9.70;2.53;;;;;;;;;;5091217;28;20027;-26
2024/01/24 12:01:01;;;;;;;6.90;2.13;;;;;;;;;;5094181;28;20125;-26
2024/01/24 12:03:28;;;;;;;8.60;2.40;;;;;;;;;;5093742;28;20049;-26
2024/01/24 12:05:55;;;;;;;10.90;2.55;;;;;;;;;;5094315;28;20035;-25
2024/01/24 12:08:22;;;;;;;12.57;2.58;;;;;;;;;;5091164;28;20035;-27
2024/01/24 12:10:50;;;;;;;8.25;2.53;;;;;;;;;;5092486;28;20060;-27
2024/01/24 12:13:18;;;;;;;8.93;2.45;;;;;;;;;;5094137;28;20048;-27
2024/01/24 12:15:46;;;;;;;11.95;2.22;;;;;;;;;;5094031;28;20020;-26
2024/01/24 12:18:16;;;;;;;9.65;2.17;;;;;;;;;;5093948;28;20020;-27
2024/01/24 12:21:05;;;;;;;10.30;2.45;;;;;;;;;;5089479;28;20036;-26
2024/01/24 12:23:33;;;;;;;8.77;2.38;;;;;;;;;;5093787;28;20066;-26
2024/01/24 12:26:00;;;;;;;17.48;2.60;;;;;;;;;;5093729;28;20393;-28
2024/01/24 12:28:27;;;;;;;16.13;2.55;;;;;;;;;;5093737;28;20533;-26
2024/01/24 12:30:54;;;;;;;11.15;2.45;;;;;;;;;;5093507;28;20067;-26
2024/01/24 12:33:21;;;;;;;14.30;2.83;;;;;;;;;;5089276;28;20485;-26
2024/01/24 12:35:49;;;;;;;23.10;2.92;;;;;;;;;;5093630;28;20062;-26
2024/01/24 12:38:16;;;;;;;23.10;3.33;;;;;;;;;;5093437;28;20139;-29
2024/01/24 12:40:48;;;;;;;17.98;3.22;;;;;;;;;;5093369;28;20028;-26
2024/01/24 12:43:15;;;;;;;36.95;4.00;;;;;;;;;;5092695;28;20024;-26
2024/01/24 12:45:42;;;;;;;33.42;3.95;;;;;;;;;;5089749;28;20094;-27
2024/01/24 12:48:12;;;;;;;43.88;4.70;;;;;;;;;;5093328;28;20363;-27
2024/01/24 12:50:39;;;;;;;58.47;5.65;;;;;;;;;;5093280;28;20027;-27
2024/01/24 12:53:06;;;;;;;74.38;7.07;;;;;;;;;;5093285;28;20359;-27
2024/01/24 12:55:33;;;;;;;60.78;6.25;;;;;;;;;;5091737;28;20028;-26
2024/01/24 12:58:01;;;;;;;71.90;7.30;;;;;;;;;;5090113;28;20027;-27
2024/01/24 13:00:28;;;;;;;54.17;5.75;;;;;;;;;;5093099;28;20039;-28
2024/01/24 13:02:55;;;;;;;57.53;5.78;;;;;;;;;;5093060;28;20029;-28
2024/01/24 13:05:22;;;;;;;56.85;5.07;;;;;;;;;;5093112;28;20032;-26
2024/01/24 13:07:49;;;;;;;41.25;4.70;;;;;;;;;;5090767;28;20602;-26
2024/01/24 13:10:16;;;;;;;37.25;5.35;;;;;;;;;;5090394;28;20409;-26
2024/01/24 13:12:43;;;;;;;42.30;5.28;;;;;;;;;;5092839;28;20028;-27
2024/01/24 13:15:11;;;;;;;44.30;5.07;;;;;;;;;;5091982;28;20469;-26
2024/01/24 13:17:38;;;;;;;34.75;4.25;;;;;;;;;;5092836;28;20036;-26
2024/01/24 13:20:05;;;;;;;39.03;4.97;;;;;;;;;;5089723;28;20032;-27
2024/01/24 13:22:32;;;;;;;33.70;4.68;;;;;;;;;;5091450;28;20508;-27
2024/01/24 13:24:59;;;;;;;29.75;4.45;;;;;;;;;;5092636;28;20016;-27
2024/01/24 13:27:26;;;;;;;36.60;4.68;;;;;;;;;;5092571;28;20012;-27
2024/01/24 13:29:53;;;;;;;37.90;4.90;;;;;;;;;;5092446;28;20040;-26
2024/01/24 13:32:20;;;;;;;28.83;4.43;;;;;;;;;;5088170;28;20024;-27
2024/01/24 13:34:47;;;;;;;28.88;4.13;;;;;;;;;;5092013;28;20020;-26
2024/01/24 13:37:16;;;;;;;37.42;4.47;;;;;;;;;;5092359;28;20523;-27
2024/01/24 13:39:43;;;;;;;42.13;5.60;;;;;;;;;;5092335;28;20077;-27
2024/01/24 13:42:10;;;;;;;28.55;3.80;;;;;;;;;;5092450;28;20036;-28
2024/01/24 13:44:37;;;;;;;27.95;4.53;;;;;;;;;;5087744;28;20049;-28
2024/01/24 13:47:04;;;;;;;27.67;4.07;;;;;;;;;;5092241;28;20055;-26
2024/01/24 13:49:31;;;;;;;27.10;4.07;;;;;;;;;;5092313;28;20020;-27
2024/01/24 13:51:58;;;;;;;24.05;4.68;;;;;;;;;;5092306;28;20032;-27
2024/01/24 13:54:24;;;;;;;28.15;3.58;;;;;;;;;;5092201;28;20051;-28
2024/01/24 13:56:52;;;;;;;20.13;4.15;;;;;;;;;;5087463;28;20055;-28
2024/01/24 13:59:18;;;;;;;22.85;3.95;;;;;;;;;;5092406;28;20496;-26
2024/01/24 14:01:45;;;;;;;21.20;3.47;;;;;;;;;;5092070;28;20099;-27
2024/01/24 14:04:12;;;;;;;27.52;4.20;;;;;;;;;;5092027;28;20427;-27
2024/01/24 14:06:39;;;;;;;24.80;3.55;;;;;;;;;;5091634;28;20048;-27
2024/01/24 14:09:07;;;;;;;20.58;3.60;;;;;;;;;;5087723;28;20131;-27
2024/01/24 14:11:34;;;;;;;22.23;3.83;;;;;;;;;;5091724;28;20040;-27
2024/01/24 14:14:01;;;;;;;26.63;3.65;;;;;;;;;;5091851;28;20024;-26
2024/01/24 14:16:28;;;;;;;27.83;3.55;;;;;;;;;;5091816;28;20119;-26
2024/01/24 14:18:55;;;;;;;14.88;3.45;;;;;;;;;;5090994;28;20024;-29
2024/01/24 14:21:22;;;;;;;20.42;3.33;;;;;;;;;;5088081;28;20024;-27
2024/01/24 14:23:49;;;;;;;23.88;3.22;;;;;;;;;;5091798;28;20149;-27
2024/01/24 14:26:16;;;;;;;19.55;3.33;;;;;;;;;;5073620;28;20107;-27
2024/01/24 14:28:43;;;;;;;22.23;3.83;;;;;;;;;;5091648;28;20024;-28
2024/01/24 14:31:10;;;;;;;25.77;3.40;;;;;;;;;;5089831;28;20036;-26
2024/01/24 14:33:37;;;;;;;24.55;3.75;;;;;;;;;;5088451;28;20401;-27
2024/01/24 14:36:04;;;;;;;25.27;3.42;;;;;;;;;;5091669;28;20595;-27
2024/01/24 14:38:31;;;;;;;24.02;4.32;;;;;;;;;;5091653;28;20474;-27